sensor_id;sensor_type;location;lat;lon;timestamp;P1;durP1;ratioP1;P2;durP2;ratioP2
11313;SDS011;5712;48.858;9.206;2023-01-04T00:01:13;13.47;;;9.40;;
11313;SDS011;5712;48.858;9.206;2023-01-04T00:03:41;13.83;;;10.10;;
11313;SDS011;5712;48.858;9.206;2023-01-04T00:06:10;16.20;;;10.23;;
11313;SDS011;5712;48.858;9.206;2023-01-04T00:08:38;13.83;;;9.50;;
11313;SDS011;5712;48.858;9.206;2023-01-04T00:11:05;13.07;;;9.57;;
11313;SDS011;5712;48.858;9.206;2023-01-04T00:13:33;13.93;;;9.77;;
11313;SDS011;5712;48.858;9.206;2023-01-04T00:16:02;12.63;;;9.40;;
11313;SDS011;5712;48.858;9.206;2023-01-04T00:18:30;11.30;;;9.57;;
11313;SDS011;5712;48.858;9.206;2023-01-04T00:21:04;11.40;;;9.03;;
11313;SDS011;5712;48.858;9.206;2023-01-04T00:23:33;13.60;;;9.70;;
11313;SDS011;5712;48.858;9.206;2023-01-04T00:25:59;13.20;;;9.83;;
11313;SDS011;5712;48.858;9.206;2023-01-04T00:28:26;11.93;;;9.70;;
11313;SDS011;5712;48.858;9.206;2023-01-04T00:30:52;12.33;;;8.90;;
11313;SDS011;5712;48.858;9.206;2023-01-04T00:33:19;12.73;;;10.17;;
11313;SDS011;5712;48.858;9.206;2023-01-04T00:35:45;12.23;;;9.30;;
11313;SDS011;5712;48.858;9.206;2023-01-04T00:38:12;13.77;;;9.33;;
11313;SDS011;5712;48.858;9.206;2023-01-04T00:40:40;10.90;;;9.13;;
11313;SDS011;5712;48.858;9.206;2023-01-04T00:43:06;12.57;;;9.23;;
11313;SDS011;5712;48.858;9.206;2023-01-04T00:45:32;10.30;;;8.60;;
11313;SDS011;5712;48.858;9.206;2023-01-04T00:47:59;12.97;;;8.93;;
11313;SDS011;5712;48.858;9.206;2023-01-04T00:50:25;12.50;;;9.63;;
11313;SDS011;5712;48.858;9.206;2023-01-04T00:52:52;12.70;;;9.70;;
11313;SDS011;5712;48.858;9.206;2023-01-04T00:55:18;12.80;;;10.33;;
11313;SDS011;5712;48.858;9.206;2023-01-04T00:57:46;13.93;;;10.17;;
11313;SDS011;5712;48.858;9.206;2023-01-04T01:00:13;13.47;;;9.57;;
11313;SDS011;5712;48.858;9.206;2023-01-04T01:02:40;11.07;;;9.10;;
11313;SDS011;5712;48.858;9.206;2023-01-04T01:05:06;13.13;;;9.93;;
11313;SDS011;5712;48.858;9.206;2023-01-04T01:07:33;14.10;;;10.13;;
11313;SDS011;5712;48.858;9.206;2023-01-04T01:09:59;17.70;;;10.93;;
11313;SDS011;5712;48.858;9.206;2023-01-04T01:12:26;13.37;;;9.90;;
11313;SDS011;5712;48.858;9.206;2023-01-04T01:14:54;12.83;;;10.13;;
11313;SDS011;5712;48.858;9.206;2023-01-04T01:17:20;14.47;;;10.50;;
11313;SDS011;5712;48.858;9.206;2023-01-04T01:19:47;12.23;;;8.73;;
11313;SDS011;5712;48.858;9.206;2023-01-04T01:22:13;12.27;;;8.73;;
11313;SDS011;5712;48.858;9.206;2023-01-04T01:24:40;10.37;;;8.20;;
11313;SDS011;5712;48.858;9.206;2023-01-04T01:27:06;10.40;;;8.43;;
11313;SDS011;5712;48.858;9.206;2023-01-04T01:29:33;12.07;;;8.57;;
11313;SDS011;5712;48.858;9.206;2023-01-04T01:32:01;12.20;;;8.50;;
11313;SDS011;5712;48.858;9.206;2023-01-04T01:34:27;14.23;;;9.07;;
11313;SDS011;5712;48.858;9.206;2023-01-04T01:36:54;14.20;;;9.47;;
11313;SDS011;5712;48.858;9.206;2023-01-04T01:39:20;11.67;;;8.50;;
11313;SDS011;5712;48.858;9.206;2023-01-04T01:41:47;10.10;;;8.20;;
11313;SDS011;5712;48.858;9.206;2023-01-04T01:47:23;10.40;;;8.20;;
11313;SDS011;5712;48.858;9.206;2023-01-04T01:49:53;13.23;;;8.47;;
11313;SDS011;5712;48.858;9.206;2023-01-04T01:52:20;10.37;;;8.70;;
11313;SDS011;5712;48.858;9.206;2023-01-04T01:54:50;11.13;;;8.63;;
11313;SDS011;5712;48.858;9.206;2023-01-04T01:57:22;9.13;;;7.93;;
11313;SDS011;5712;48.858;9.206;2023-01-04T01:59:52;12.77;;;8.93;;
11313;SDS011;5712;48.858;9.206;2023-01-04T02:02:24;12.40;;;8.70;;
11313;SDS011;5712;48.858;9.206;2023-01-04T02:04:51;10.30;;;8.23;;
11313;SDS011;5712;48.858;9.206;2023-01-04T02:07:19;10.53;;;8.40;;
11313;SDS011;5712;48.858;9.206;2023-01-04T02:09:49;11.30;;;8.03;;
11313;SDS011;5712;48.858;9.206;2023-01-04T02:12:16;10.90;;;8.10;;
11313;SDS011;5712;48.858;9.206;2023-01-04T02:14:43;11.57;;;8.87;;
11313;SDS011;5712;48.858;9.206;2023-01-04T02:17:13;13.93;;;8.50;;
11313;SDS011;5712;48.858;9.206;2023-01-04T02:19:55;11.33;;;8.87;;
11313;SDS011;5712;48.858;9.206;2023-01-04T02:25:40;12.17;;;7.90;;
11313;SDS011;5712;48.858;9.206;2023-01-04T02:28:47;11.83;;;8.87;;
11313;SDS011;5712;48.858;9.206;2023-01-04T02:31:30;12.50;;;8.73;;
11313;SDS011;5712;48.858;9.206;2023-01-04T02:34:06;12.27;;;8.73;;
11313;SDS011;5712;48.858;9.206;2023-01-04T02:36:43;13.97;;;9.73;;
11313;SDS011;5712;48.858;9.206;2023-01-04T02:39:20;12.47;;;8.80;;
11313;SDS011;5712;48.858;9.206;2023-01-04T02:42:01;10.70;;;8.40;;
11313;SDS011;5712;48.858;9.206;2023-01-04T02:44:34;11.97;;;8.20;;
11313;SDS011;5712;48.858;9.206;2023-01-04T02:47:20;12.07;;;8.50;;
11313;SDS011;5712;48.858;9.206;2023-01-04T02:50:08;13.47;;;8.97;;
11313;SDS011;5712;48.858;9.206;2023-01-04T02:52:58;11.63;;;8.67;;
11313;SDS011;5712;48.858;9.206;2023-01-04T02:55:31;11.13;;;7.73;;
11313;SDS011;5712;48.858;9.206;2023-01-04T02:58:10;12.00;;;8.47;;
11313;SDS011;5712;48.858;9.206;2023-01-04T03:00:48;12.10;;;8.70;;
11313;SDS011;5712;48.858;9.206;2023-01-04T03:03:40;11.23;;;8.13;;
11313;SDS011;5712;48.858;9.206;2023-01-04T03:06:32;11.70;;;8.13;;
11313;SDS011;5712;48.858;9.206;2023-01-04T03:09:08;9.53;;;7.90;;
11313;SDS011;5712;48.858;9.206;2023-01-04T03:11:40;11.40;;;7.90;;
11313;SDS011;5712;48.858;9.206;2023-01-04T03:14:28;11.57;;;8.07;;
11313;SDS011;5712;48.858;9.206;2023-01-04T03:17:00;11.27;;;8.33;;
11313;SDS011;5712;48.858;9.206;2023-01-04T03:19:30;10.47;;;7.73;;
11313;SDS011;5712;48.858;9.206;2023-01-04T03:22:19;12.03;;;9.20;;
11313;SDS011;5712;48.858;9.206;2023-01-04T03:25:08;13.17;;;8.27;;
11313;SDS011;5712;48.858;9.206;2023-01-04T03:27:55;12.10;;;8.33;;
11313;SDS011;5712;48.858;9.206;2023-01-04T03:30:44;13.40;;;8.00;;
11313;SDS011;5712;48.858;9.206;2023-01-04T03:33:36;11.30;;;7.80;;
11313;SDS011;5712;48.858;9.206;2023-01-04T03:36:28;11.60;;;8.37;;
11313;SDS011;5712;48.858;9.206;2023-01-04T03:39:04;10.97;;;7.77;;
11313;SDS011;5712;48.858;9.206;2023-01-04T03:41:54;10.77;;;7.67;;
11313;SDS011;5712;48.858;9.206;2023-01-04T03:44:46;13.13;;;8.50;;
11313;SDS011;5712;48.858;9.206;2023-01-04T03:47:39;12.03;;;8.80;;
11313;SDS011;5712;48.858;9.206;2023-01-04T03:50:30;13.60;;;9.00;;
11313;SDS011;5712;48.858;9.206;2023-01-04T03:53:05;12.00;;;8.33;;
11313;SDS011;5712;48.858;9.206;2023-01-04T03:55:33;12.53;;;8.93;;
11313;SDS011;5712;48.858;9.206;2023-01-04T03:58:02;14.07;;;9.67;;
11313;SDS011;5712;48.858;9.206;2023-01-04T04:00:28;12.00;;;8.43;;
11313;SDS011;5712;48.858;9.206;2023-01-04T04:02:56;13.60;;;9.43;;
11313;SDS011;5712;48.858;9.206;2023-01-04T04:05:31;14.33;;;9.43;;
11313;SDS011;5712;48.858;9.206;2023-01-04T04:08:19;13.20;;;10.53;;
11313;SDS011;5712;48.858;9.206;2023-01-04T04:10:56;15.17;;;10.70;;
11313;SDS011;5712;48.858;9.206;2023-01-04T04:13:44;13.93;;;9.37;;
11313;SDS011;5712;48.858;9.206;2023-01-04T04:16:10;13.40;;;9.63;;
11313;SDS011;5712;48.858;9.206;2023-01-04T04:18:37;15.60;;;10.07;;
11313;SDS011;5712;48.858;9.206;2023-01-04T04:21:03;14.90;;;10.00;;
11313;SDS011;5712;48.858;9.206;2023-01-04T04:23:32;13.27;;;8.50;;
11313;SDS011;5712;48.858;9.206;2023-01-04T04:25:58;13.70;;;9.17;;
11313;SDS011;5712;48.858;9.206;2023-01-04T04:28:25;10.63;;;8.57;;
11313;SDS011;5712;48.858;9.206;2023-01-04T04:30:51;9.87;;;7.47;;
11313;SDS011;5712;48.858;9.206;2023-01-04T04:33:18;10.57;;;7.77;;
11313;SDS011;5712;48.858;9.206;2023-01-04T04:35:44;12.83;;;8.00;;
11313;SDS011;5712;48.858;9.206;2023-01-04T04:38:15;9.63;;;7.60;;
11313;SDS011;5712;48.858;9.206;2023-01-04T04:40:43;10.37;;;7.20;;
11313;SDS011;5712;48.858;9.206;2023-01-04T04:43:27;8.60;;;6.63;;
11313;SDS011;5712;48.858;9.206;2023-01-04T04:45:53;9.93;;;7.00;;
11313;SDS011;5712;48.858;9.206;2023-01-04T04:48:20;9.33;;;6.70;;
11313;SDS011;5712;48.858;9.206;2023-01-04T04:50:47;10.40;;;7.20;;
11313;SDS011;5712;48.858;9.206;2023-01-04T04:53:13;9.13;;;6.97;;
11313;SDS011;5712;48.858;9.206;2023-01-04T04:55:40;9.33;;;6.93;;
11313;SDS011;5712;48.858;9.206;2023-01-04T04:58:08;9.47;;;6.67;;
11313;SDS011;5712;48.858;9.206;2023-01-04T05:00:34;9.63;;;6.60;;
11313;SDS011;5712;48.858;9.206;2023-01-04T05:03:01;8.77;;;6.93;;
11313;SDS011;5712;48.858;9.206;2023-01-04T05:05:27;9.23;;;6.70;;
11313;SDS011;5712;48.858;9.206;2023-01-04T05:07:54;7.73;;;5.47;;
11313;SDS011;5712;48.858;9.206;2023-01-04T05:10:20;8.47;;;6.33;;
11313;SDS011;5712;48.858;9.206;2023-01-04T05:12:47;8.37;;;6.10;;
11313;SDS011;5712;48.858;9.206;2023-01-04T05:15:26;6.90;;;5.43;;
11313;SDS011;5712;48.858;9.206;2023-01-04T05:17:56;7.27;;;5.70;;
11313;SDS011;5712;48.858;9.206;2023-01-04T05:20:22;7.00;;;5.50;;
11313;SDS011;5712;48.858;9.206;2023-01-04T05:22:49;7.77;;;6.30;;
11313;SDS011;5712;48.858;9.206;2023-01-04T05:25:16;7.73;;;6.10;;
11313;SDS011;5712;48.858;9.206;2023-01-04T05:27:42;6.20;;;5.60;;
11313;SDS011;5712;48.858;9.206;2023-01-04T05:30:10;7.53;;;5.53;;
11313;SDS011;5712;48.858;9.206;2023-01-04T05:32:57;6.20;;;5.23;;
11313;SDS011;5712;48.858;9.206;2023-01-04T05:35:23;7.03;;;5.20;;
11313;SDS011;5712;48.858;9.206;2023-01-04T05:37:50;6.37;;;5.17;;
11313;SDS011;5712;48.858;9.206;2023-01-04T05:40:17;7.23;;;4.60;;
11313;SDS011;5712;48.858;9.206;2023-01-04T05:42:43;6.97;;;5.20;;
11313;SDS011;5712;48.858;9.206;2023-01-04T05:45:09;5.47;;;4.57;;
11313;SDS011;5712;48.858;9.206;2023-01-04T05:47:36;5.13;;;4.03;;
11313;SDS011;5712;48.858;9.206;2023-01-04T05:50:04;7.10;;;5.17;;
11313;SDS011;5712;48.858;9.206;2023-01-04T05:52:31;5.97;;;4.50;;
11313;SDS011;5712;48.858;9.206;2023-01-04T05:54:58;6.80;;;4.30;;
11313;SDS011;5712;48.858;9.206;2023-01-04T05:57:25;5.47;;;4.27;;
11313;SDS011;5712;48.858;9.206;2023-01-04T05:59:51;5.10;;;3.80;;
11313;SDS011;5712;48.858;9.206;2023-01-04T06:02:18;4.97;;;3.87;;
11313;SDS011;5712;48.858;9.206;2023-01-04T06:04:47;4.83;;;3.90;;
11313;SDS011;5712;48.858;9.206;2023-01-04T06:07:16;4.87;;;3.80;;
11313;SDS011;5712;48.858;9.206;2023-01-04T06:09:42;4.03;;;3.57;;
11313;SDS011;5712;48.858;9.206;2023-01-04T06:12:09;5.07;;;4.00;;
11313;SDS011;5712;48.858;9.206;2023-01-04T06:14:37;5.47;;;3.67;;
11313;SDS011;5712;48.858;9.206;2023-01-04T06:17:03;5.13;;;4.03;;
11313;SDS011;5712;48.858;9.206;2023-01-04T06:19:30;5.07;;;3.90;;
11313;SDS011;5712;48.858;9.206;2023-01-04T06:21:57;5.80;;;4.10;;
11313;SDS011;5712;48.858;9.206;2023-01-04T06:24:25;6.27;;;4.30;;
11313;SDS011;5712;48.858;9.206;2023-01-04T06:26:51;4.40;;;3.97;;
11313;SDS011;5712;48.858;9.206;2023-01-04T06:29:18;6.50;;;4.03;;
11313;SDS011;5712;48.858;9.206;2023-01-04T06:31:44;5.70;;;3.87;;
11313;SDS011;5712;48.858;9.206;2023-01-04T06:34:11;4.77;;;4.10;;
11313;SDS011;5712;48.858;9.206;2023-01-04T06:36:39;6.33;;;4.27;;
11313;SDS011;5712;48.858;9.206;2023-01-04T06:39:06;4.97;;;4.00;;
11313;SDS011;5712;48.858;9.206;2023-01-04T06:41:34;5.13;;;4.33;;
11313;SDS011;5712;48.858;9.206;2023-01-04T06:44:01;5.20;;;4.07;;
11313;SDS011;5712;48.858;9.206;2023-01-04T06:46:28;4.90;;;4.30;;
11313;SDS011;5712;48.858;9.206;2023-01-04T06:48:54;5.43;;;4.33;;
11313;SDS011;5712;48.858;9.206;2023-01-04T06:51:21;4.70;;;3.93;;
11313;SDS011;5712;48.858;9.206;2023-01-04T06:53:47;6.00;;;4.47;;
11313;SDS011;5712;48.858;9.206;2023-01-04T06:56:14;4.80;;;4.07;;
11313;SDS011;5712;48.858;9.206;2023-01-04T06:58:42;5.47;;;4.33;;
11313;SDS011;5712;48.858;9.206;2023-01-04T07:01:08;4.90;;;4.13;;
11313;SDS011;5712;48.858;9.206;2023-01-04T07:03:35;4.90;;;3.93;;
11313;SDS011;5712;48.858;9.206;2023-01-04T07:06:02;4.33;;;3.80;;
11313;SDS011;5712;48.858;9.206;2023-01-04T07:08:30;4.13;;;3.60;;
11313;SDS011;5712;48.858;9.206;2023-01-04T07:10:56;5.63;;;3.87;;
11313;SDS011;5712;48.858;9.206;2023-01-04T07:13:23;4.77;;;3.63;;
11313;SDS011;5712;48.858;9.206;2023-01-04T07:15:50;4.27;;;3.80;;
11313;SDS011;5712;48.858;9.206;2023-01-04T07:18:17;5.57;;;3.63;;
11313;SDS011;5712;48.858;9.206;2023-01-04T07:20:43;5.57;;;3.80;;
11313;SDS011;5712;48.858;9.206;2023-01-04T07:23:10;5.30;;;3.83;;
11313;SDS011;5712;48.858;9.206;2023-01-04T07:25:36;5.43;;;3.90;;
11313;SDS011;5712;48.858;9.206;2023-01-04T07:28:03;5.00;;;3.67;;
11313;SDS011;5712;48.858;9.206;2023-01-04T07:30:29;4.70;;;3.63;;
11313;SDS011;5712;48.858;9.206;2023-01-04T07:32:57;4.07;;;3.27;;
11313;SDS011;5712;48.858;9.206;2023-01-04T07:35:24;3.83;;;3.07;;
11313;SDS011;5712;48.858;9.206;2023-01-04T07:37:50;3.13;;;2.77;;
11313;SDS011;5712;48.858;9.206;2023-01-04T07:40:17;3.67;;;2.83;;
11313;SDS011;5712;48.858;9.206;2023-01-04T07:42:44;6.73;;;4.10;;
11313;SDS011;5712;48.858;9.206;2023-01-04T07:45:19;3.80;;;3.30;;
11313;SDS011;5712;48.858;9.206;2023-01-04T07:47:45;5.47;;;3.80;;
11313;SDS011;5712;48.858;9.206;2023-01-04T07:50:13;5.27;;;3.77;;
11313;SDS011;5712;48.858;9.206;2023-01-04T07:52:39;5.33;;;3.87;;
11313;SDS011;5712;48.858;9.206;2023-01-04T07:55:06;5.40;;;4.07;;
11313;SDS011;5712;48.858;9.206;2023-01-04T07:57:33;4.67;;;3.83;;
11313;SDS011;5712;48.858;9.206;2023-01-04T08:00:00;7.83;;;4.13;;
11313;SDS011;5712;48.858;9.206;2023-01-04T08:02:27;4.93;;;3.67;;
11313;SDS011;5712;48.858;9.206;2023-01-04T08:04:54;6.10;;;4.30;;
11313;SDS011;5712;48.858;9.206;2023-01-04T08:07:22;4.90;;;3.87;;
11313;SDS011;5712;48.858;9.206;2023-01-04T08:09:49;6.13;;;4.00;;
11313;SDS011;5712;48.858;9.206;2023-01-04T08:12:15;7.30;;;4.57;;
11313;SDS011;5712;48.858;9.206;2023-01-04T08:14:42;6.63;;;3.90;;
11313;SDS011;5712;48.858;9.206;2023-01-04T08:17:08;6.37;;;4.37;;
11313;SDS011;5712;48.858;9.206;2023-01-04T08:19:35;5.73;;;4.07;;
11313;SDS011;5712;48.858;9.206;2023-01-04T08:22:01;5.80;;;4.40;;
11313;SDS011;5712;48.858;9.206;2023-01-04T08:24:29;6.33;;;4.27;;
11313;SDS011;5712;48.858;9.206;2023-01-04T08:26:55;5.07;;;4.10;;
11313;SDS011;5712;48.858;9.206;2023-01-04T08:29:23;6.60;;;3.80;;
11313;SDS011;5712;48.858;9.206;2023-01-04T08:31:49;4.37;;;3.60;;
11313;SDS011;5712;48.858;9.206;2023-01-04T08:34:16;5.73;;;4.03;;
11313;SDS011;5712;48.858;9.206;2023-01-04T08:36:44;4.87;;;3.17;;
11313;SDS011;5712;48.858;9.206;2023-01-04T08:39:12;3.83;;;3.03;;
11313;SDS011;5712;48.858;9.206;2023-01-04T08:41:40;4.23;;;3.13;;
11313;SDS011;5712;48.858;9.206;2023-01-04T08:44:16;5.43;;;3.37;;
11313;SDS011;5712;48.858;9.206;2023-01-04T08:46:42;3.93;;;2.90;;
11313;SDS011;5712;48.858;9.206;2023-01-04T08:49:09;3.73;;;2.70;;
11313;SDS011;5712;48.858;9.206;2023-01-04T08:51:36;3.53;;;3.10;;
11313;SDS011;5712;48.858;9.206;2023-01-04T08:54:03;4.73;;;3.10;;
11313;SDS011;5712;48.858;9.206;2023-01-04T08:56:29;3.83;;;3.10;;
11313;SDS011;5712;48.858;9.206;2023-01-04T08:58:59;5.10;;;2.97;;
11313;SDS011;5712;48.858;9.206;2023-01-04T09:01:26;7.20;;;3.27;;
11313;SDS011;5712;48.858;9.206;2023-01-04T09:03:54;4.25;;;3.10;;
11313;SDS011;5712;48.858;9.206;2023-01-04T09:06:21;3.70;;;2.87;;
11313;SDS011;5712;48.858;9.206;2023-01-04T09:08:48;3.27;;;2.90;;
11313;SDS011;5712;48.858;9.206;2023-01-04T09:11:15;3.80;;;2.70;;
11313;SDS011;5712;48.858;9.206;2023-01-04T09:13:43;3.13;;;2.33;;
11313;SDS011;5712;48.858;9.206;2023-01-04T09:16:12;3.87;;;3.07;;
11313;SDS011;5712;48.858;9.206;2023-01-04T09:18:41;3.93;;;2.90;;
11313;SDS011;5712;48.858;9.206;2023-01-04T09:21:08;3.73;;;2.53;;
11313;SDS011;5712;48.858;9.206;2023-01-04T09:23:36;4.70;;;2.73;;
11313;SDS011;5712;48.858;9.206;2023-01-04T09:26:04;5.20;;;2.40;;
11313;SDS011;5712;48.858;9.206;2023-01-04T09:28:31;2.87;;;2.10;;
11313;SDS011;5712;48.858;9.206;2023-01-04T09:30:57;3.50;;;1.80;;
11313;SDS011;5712;48.858;9.206;2023-01-04T09:33:25;2.83;;;1.70;;
11313;SDS011;5712;48.858;9.206;2023-01-04T09:35:52;2.53;;;1.50;;
11313;SDS011;5712;48.858;9.206;2023-01-04T09:38:18;1.70;;;1.20;;
11313;SDS011;5712;48.858;9.206;2023-01-04T09:40:46;2.30;;;1.40;;
11313;SDS011;5712;48.858;9.206;2023-01-04T09:43:20;1.97;;;1.03;;
11313;SDS011;5712;48.858;9.206;2023-01-04T09:45:48;1.93;;;1.20;;
11313;SDS011;5712;48.858;9.206;2023-01-04T09:48:18;2.70;;;1.08;;
11313;SDS011;5712;48.858;9.206;2023-01-04T09:50:53;1.33;;;0.97;;
11313;SDS011;5712;48.858;9.206;2023-01-04T09:53:23;2.60;;;0.90;;
11313;SDS011;5712;48.858;9.206;2023-01-04T09:55:54;2.50;;;0.93;;
11313;SDS011;5712;48.858;9.206;2023-01-04T09:58:27;1.03;;;0.90;;
11313;SDS011;5712;48.858;9.206;2023-01-04T10:00:59;1.53;;;0.90;;
11313;SDS011;5712;48.858;9.206;2023-01-04T10:03:29;1.33;;;0.90;;
11313;SDS011;5712;48.858;9.206;2023-01-04T10:05:59;1.77;;;1.00;;
11313;SDS011;5712;48.858;9.206;2023-01-04T10:08:27;1.43;;;0.80;;
11313;SDS011;5712;48.858;9.206;2023-01-04T10:11:01;1.00;;;0.90;;
11313;SDS011;5712;48.858;9.206;2023-01-04T10:13:43;1.73;;;0.90;;
11313;SDS011;5712;48.858;9.206;2023-01-04T10:16:30;2.80;;;0.87;;
11313;SDS011;5712;48.858;9.206;2023-01-04T10:19:07;1.13;;;0.97;;
11313;SDS011;5712;48.858;9.206;2023-01-04T10:21:45;2.33;;;1.00;;
11313;SDS011;5712;48.858;9.206;2023-01-04T10:24:22;1.23;;;0.67;;
11313;SDS011;5712;48.858;9.206;2023-01-04T10:27:00;1.37;;;0.90;;
11313;SDS011;5712;48.858;9.206;2023-01-04T10:29:41;0.93;;;0.90;;
11313;SDS011;5712;48.858;9.206;2023-01-04T10:32:16;1.17;;;0.70;;
11313;SDS011;5712;48.858;9.206;2023-01-04T10:34:48;2.03;;;0.80;;
11313;SDS011;5712;48.858;9.206;2023-01-04T10:37:18;1.60;;;0.90;;
11313;SDS011;5712;48.858;9.206;2023-01-04T10:39:47;2.00;;;0.90;;
11313;SDS011;5712;48.858;9.206;2023-01-04T10:42:18;2.03;;;1.00;;
11313;SDS011;5712;48.858;9.206;2023-01-04T10:45:00;2.00;;;0.90;;
11313;SDS011;5712;48.858;9.206;2023-01-04T10:47:34;2.10;;;0.87;;
11313;SDS011;5712;48.858;9.206;2023-01-04T10:50:07;1.40;;;0.80;;
11313;SDS011;5712;48.858;9.206;2023-01-04T10:52:42;2.67;;;0.80;;
11313;SDS011;5712;48.858;9.206;2023-01-04T10:55:13;1.47;;;1.00;;
11313;SDS011;5712;48.858;9.206;2023-01-04T10:57:47;1.50;;;0.90;;
11313;SDS011;5712;48.858;9.206;2023-01-04T11:00:18;2.00;;;0.93;;
11313;SDS011;5712;48.858;9.206;2023-01-04T11:02:49;0.87;;;0.70;;
11313;SDS011;5712;48.858;9.206;2023-01-04T11:05:24;1.77;;;0.70;;
11313;SDS011;5712;48.858;9.206;2023-01-04T11:07:56;1.50;;;1.00;;
11313;SDS011;5712;48.858;9.206;2023-01-04T11:10:29;2.37;;;0.90;;
11313;SDS011;5712;48.858;9.206;2023-01-04T11:13:00;1.80;;;0.80;;
11313;SDS011;5712;48.858;9.206;2023-01-04T11:15:27;2.07;;;0.70;;
11313;SDS011;5712;48.858;9.206;2023-01-04T11:17:53;1.00;;;0.70;;
11313;SDS011;5712;48.858;9.206;2023-01-04T11:20:21;1.23;;;0.80;;
11313;SDS011;5712;48.858;9.206;2023-01-04T11:22:49;0.77;;;0.77;;
11313;SDS011;5712;48.858;9.206;2023-01-04T11:25:21;0.83;;;0.60;;
11313;SDS011;5712;48.858;9.206;2023-01-04T11:27:50;1.17;;;0.70;;
11313;SDS011;5712;48.858;9.206;2023-01-04T11:30:20;0.80;;;0.70;;
11313;SDS011;5712;48.858;9.206;2023-01-04T11:32:51;0.90;;;0.70;;
11313;SDS011;5712;48.858;9.206;2023-01-04T11:38:14;0.67;;;0.50;;
11313;SDS011;5712;48.858;9.206;2023-01-04T11:40:45;0.80;;;0.60;;
11313;SDS011;5712;48.858;9.206;2023-01-04T11:43:20;0.80;;;0.70;;
11313;SDS011;5712;48.858;9.206;2023-01-04T11:45:51;1.13;;;0.70;;
11313;SDS011;5712;48.858;9.206;2023-01-04T11:48:20;1.30;;;0.80;;
11313;SDS011;5712;48.858;9.206;2023-01-04T11:50:56;2.13;;;0.70;;
11313;SDS011;5712;48.858;9.206;2023-01-04T11:53:24;1.52;;;0.80;;
11313;SDS011;5712;48.858;9.206;2023-01-04T11:56:11;0.90;;;0.80;;
11313;SDS011;5712;48.858;9.206;2023-01-04T11:58:41;1.67;;;0.70;;
11313;SDS011;5712;48.858;9.206;2023-01-04T12:03:53;1.53;;;0.70;;
11313;SDS011;5712;48.858;9.206;2023-01-04T12:06:21;0.80;;;0.80;;
11313;SDS011;5712;48.858;9.206;2023-01-04T12:08:55;1.50;;;0.87;;
11313;SDS011;5712;48.858;9.206;2023-01-04T12:11:25;0.70;;;0.70;;
11313;SDS011;5712;48.858;9.206;2023-01-04T12:13:56;0.80;;;0.67;;
11313;SDS011;5712;48.858;9.206;2023-01-04T12:16:27;0.97;;;0.73;;
11313;SDS011;5712;48.858;9.206;2023-01-04T12:19:07;1.23;;;0.80;;
11313;SDS011;5712;48.858;9.206;2023-01-04T12:21:37;1.57;;;0.73;;
11313;SDS011;5712;48.858;9.206;2023-01-04T12:24:05;1.07;;;0.70;;
11313;SDS011;5712;48.858;9.206;2023-01-04T12:26:33;0.90;;;0.73;;
11313;SDS011;5712;48.858;9.206;2023-01-04T12:38:01;2.70;;;0.80;;
11313;SDS011;5712;48.858;9.206;2023-01-04T12:43:23;1.57;;;0.80;;
11313;SDS011;5712;48.858;9.206;2023-01-04T12:52:36;1.90;;;1.00;;
11313;SDS011;5712;48.858;9.206;2023-01-04T12:55:22;1.60;;;0.87;;
11313;SDS011;5712;48.858;9.206;2023-01-04T13:01:06;0.90;;;0.80;;
11313;SDS011;5712;48.858;9.206;2023-01-04T13:03:35;1.57;;;0.80;;
11313;SDS011;5712;48.858;9.206;2023-01-04T13:06:12;1.87;;;0.90;;
11313;SDS011;5712;48.858;9.206;2023-01-04T13:08:39;1.33;;;0.80;;
11313;SDS011;5712;48.858;9.206;2023-01-04T13:11:14;1.77;;;0.67;;
11313;SDS011;5712;48.858;9.206;2023-01-04T13:13:54;1.37;;;0.80;;
11313;SDS011;5712;48.858;9.206;2023-01-04T13:16:28;0.60;;;0.60;;
11313;SDS011;5712;48.858;9.206;2023-01-04T13:19:06;1.70;;;0.70;;
11313;SDS011;5712;48.858;9.206;2023-01-04T13:21:37;1.60;;;0.77;;
11313;SDS011;5712;48.858;9.206;2023-01-04T13:24:13;1.70;;;0.80;;
11313;SDS011;5712;48.858;9.206;2023-01-04T13:26:46;2.03;;;0.77;;
11313;SDS011;5712;48.858;9.206;2023-01-04T13:29:16;0.63;;;0.60;;
11313;SDS011;5712;48.858;9.206;2023-01-04T13:31:52;0.93;;;0.60;;
11313;SDS011;5712;48.858;9.206;2023-01-04T13:34:22;0.87;;;0.87;;
11313;SDS011;5712;48.858;9.206;2023-01-04T13:39:46;1.10;;;0.87;;
11313;SDS011;5712;48.858;9.206;2023-01-04T13:42:15;1.30;;;0.90;;
11313;SDS011;5712;48.858;9.206;2023-01-04T13:47:49;2.00;;;0.70;;
11313;SDS011;5712;48.858;9.206;2023-01-04T13:50:28;1.97;;;0.80;;
11313;SDS011;5712;48.858;9.206;2023-01-04T13:52:58;1.03;;;0.70;;
11313;SDS011;5712;48.858;9.206;2023-01-04T13:55:26;1.20;;;0.57;;
11313;SDS011;5712;48.858;9.206;2023-01-04T13:57:55;0.97;;;0.77;;
11313;SDS011;5712;48.858;9.206;2023-01-04T14:00:24;0.77;;;0.53;;
11313;SDS011;5712;48.858;9.206;2023-01-04T14:03:03;0.67;;;0.53;;
11313;SDS011;5712;48.858;9.206;2023-01-04T14:05:37;1.20;;;0.70;;
11313;SDS011;5712;48.858;9.206;2023-01-04T14:08:10;2.40;;;0.80;;
11313;SDS011;5712;48.858;9.206;2023-01-04T14:10:41;0.60;;;0.60;;
11313;SDS011;5712;48.858;9.206;2023-01-04T14:13:12;0.50;;;0.50;;
11313;SDS011;5712;48.858;9.206;2023-01-04T14:15:42;0.70;;;0.53;;
11313;SDS011;5712;48.858;9.206;2023-01-04T14:18:22;1.93;;;0.70;;
11313;SDS011;5712;48.858;9.206;2023-01-04T14:20:51;0.73;;;0.67;;
11313;SDS011;5712;48.858;9.206;2023-01-04T14:23:24;2.40;;;0.60;;
11313;SDS011;5712;48.858;9.206;2023-01-04T14:25:52;1.30;;;0.70;;
11313;SDS011;5712;48.858;9.206;2023-01-04T14:28:25;1.87;;;0.80;;
11313;SDS011;5712;48.858;9.206;2023-01-04T14:30:55;0.83;;;0.60;;
11313;SDS011;5712;48.858;9.206;2023-01-04T14:33:39;2.17;;;0.80;;
11313;SDS011;5712;48.858;9.206;2023-01-04T14:36:10;1.03;;;0.70;;
11313;SDS011;5712;48.858;9.206;2023-01-04T14:38:39;1.10;;;0.80;;
11313;SDS011;5712;48.858;9.206;2023-01-04T14:41:11;1.87;;;0.90;;
11313;SDS011;5712;48.858;9.206;2023-01-04T14:43:44;1.83;;;0.70;;
11313;SDS011;5712;48.858;9.206;2023-01-04T14:46:13;1.43;;;0.80;;
11313;SDS011;5712;48.858;9.206;2023-01-04T14:48:40;0.97;;;0.60;;
11313;SDS011;5712;48.858;9.206;2023-01-04T14:51:07;0.97;;;0.50;;
11313;SDS011;5712;48.858;9.206;2023-01-04T14:53:33;0.73;;;0.53;;
11313;SDS011;5712;48.858;9.206;2023-01-04T14:56:00;1.83;;;0.77;;
11313;SDS011;5712;48.858;9.206;2023-01-04T14:58:26;6.20;;;0.80;;
11313;SDS011;5712;48.858;9.206;2023-01-04T15:00:53;0.63;;;0.60;;
11313;SDS011;5712;48.858;9.206;2023-01-04T15:03:20;2.13;;;0.80;;
11313;SDS011;5712;48.858;9.206;2023-01-04T15:05:47;1.40;;;0.70;;
11313;SDS011;5712;48.858;9.206;2023-01-04T15:08:14;0.90;;;0.80;;
11313;SDS011;5712;48.858;9.206;2023-01-04T15:10:40;0.80;;;0.53;;
11313;SDS011;5712;48.858;9.206;2023-01-04T15:13:07;1.00;;;0.63;;
11313;SDS011;5712;48.858;9.206;2023-01-04T15:15:33;1.70;;;0.80;;
11313;SDS011;5712;48.858;9.206;2023-01-04T15:18:00;1.10;;;0.67;;
11313;SDS011;5712;48.858;9.206;2023-01-04T15:20:28;0.90;;;0.80;;
11313;SDS011;5712;48.858;9.206;2023-01-04T15:22:54;0.97;;;0.70;;
11313;SDS011;5712;48.858;9.206;2023-01-04T15:25:21;1.23;;;0.80;;
11313;SDS011;5712;48.858;9.206;2023-01-04T15:27:48;0.83;;;0.60;;
11313;SDS011;5712;48.858;9.206;2023-01-04T15:30:14;0.70;;;0.70;;
11313;SDS011;5712;48.858;9.206;2023-01-04T15:32:41;2.03;;;0.73;;
11313;SDS011;5712;48.858;9.206;2023-01-04T15:35:08;0.70;;;0.70;;
11313;SDS011;5712;48.858;9.206;2023-01-04T15:37:36;0.93;;;0.70;;
11313;SDS011;5712;48.858;9.206;2023-01-04T15:40:03;2.10;;;0.63;;
11313;SDS011;5712;48.858;9.206;2023-01-04T15:42:30;0.70;;;0.70;;
11313;SDS011;5712;48.858;9.206;2023-01-04T15:45:15;2.10;;;0.73;;
11313;SDS011;5712;48.858;9.206;2023-01-04T15:47:41;0.80;;;0.63;;
11313;SDS011;5712;48.858;9.206;2023-01-04T15:50:08;0.63;;;0.60;;
11313;SDS011;5712;48.858;9.206;2023-01-04T15:52:34;1.17;;;0.90;;
11313;SDS011;5712;48.858;9.206;2023-01-04T15:55:02;0.73;;;0.70;;
11313;SDS011;5712;48.858;9.206;2023-01-04T15:57:29;0.73;;;0.70;;